Terminal Aerodrome Forecast
Issued by NWS Portland, ME

Home | Current Version | Previous Version | Text Only | Print | Product List | Glossary On
Versions: 1 2 3 4 5 6 7 8 9 10 11 12 13 14 15 16 17 18 19 20
784
FTUS41 KGYX 280803 AAB
TAFPWM
TAF AMD
KPWM 280803Z 2808/2906 00000KT 2SM BR OVC002
      TEMPO 2808/2812 1/4SM FG
     FM281400 20006KT P6SM BKN008
     FM281600 22007KT P6SM BKN070=

USA.gov is the U.S. government's official web portal to all federal, state and local government web resources and services.